sensor_id;sensor_type;location;lat;lon;timestamp;temperature;humidity
32753;DHT22;19121;52.428;10.816;2022-11-20T00:00:23;17.40;42.30
32753;DHT22;19121;52.428;10.816;2022-11-20T00:02:49;17.30;42.30
32753;DHT22;19121;52.428;10.816;2022-11-20T00:05:14;17.30;42.20
32753;DHT22;19121;52.428;10.816;2022-11-20T00:07:39;17.40;42.30
32753;DHT22;19121;52.428;10.816;2022-11-20T00:10:05;17.40;42.30
32753;DHT22;19121;52.428;10.816;2022-11-20T00:12:31;17.40;42.30
32753;DHT22;19121;52.428;10.816;2022-11-20T00:14:56;17.30;42.20
32753;DHT22;19121;52.428;10.816;2022-11-20T00:17:22;17.30;42.20
32753;DHT22;19121;52.428;10.816;2022-11-20T00:19:48;17.30;42.20
32753;DHT22;19121;52.428;10.816;2022-11-20T00:22:13;17.30;42.30
32753;DHT22;19121;52.428;10.816;2022-11-20T00:24:39;17.30;42.30
32753;DHT22;19121;52.428;10.816;2022-11-20T00:27:04;17.30;42.30
32753;DHT22;19121;52.428;10.816;2022-11-20T00:29:29;17.30;42.20
32753;DHT22;19121;52.428;10.816;2022-11-20T00:31:55;17.30;42.30
32753;DHT22;19121;52.428;10.816;2022-11-20T00:34:20;17.30;42.20
32753;DHT22;19121;52.428;10.816;2022-11-20T00:36:46;17.30;42.20
32753;DHT22;19121;52.428;10.816;2022-11-20T00:39:11;17.30;42.20
32753;DHT22;19121;52.428;10.816;2022-11-20T00:41:36;17.30;42.20
32753;DHT22;19121;52.428;10.816;2022-11-20T00:44:02;17.30;42.20
32753;DHT22;19121;52.428;10.816;2022-11-20T00:46:27;17.30;42.90
32753;DHT22;19121;52.428;10.816;2022-11-20T00:48:53;17.30;42.30
32753;DHT22;19121;52.428;10.816;2022-11-20T00:51:19;17.30;42.20
32753;DHT22;19121;52.428;10.816;2022-11-20T00:53:45;17.30;42.20
32753;DHT22;19121;52.428;10.816;2022-11-20T00:56:12;17.30;42.20
32753;DHT22;19121;52.428;10.816;2022-11-20T00:58:38;17.30;42.90
32753;DHT22;19121;52.428;10.816;2022-11-20T01:01:05;17.30;42.30
32753;DHT22;19121;52.428;10.816;2022-11-20T01:03:34;17.30;42.90
32753;DHT22;19121;52.428;10.816;2022-11-20T01:06:01;17.30;42.30
32753;DHT22;19121;52.428;10.816;2022-11-20T01:08:29;17.30;42.30
32753;DHT22;19121;52.428;10.816;2022-11-20T01:10:58;17.30;42.30
32753;DHT22;19121;52.428;10.816;2022-11-20T01:13:23;17.30;42.30
32753;DHT22;19121;52.428;10.816;2022-11-20T01:18:29;17.30;42.20
32753;DHT22;19121;52.428;10.816;2022-11-20T01:20:54;17.30;42.30
32753;DHT22;19121;52.428;10.816;2022-11-20T01:23:20;17.30;42.20
32753;DHT22;19121;52.428;10.816;2022-11-20T01:25:45;17.30;42.80
32753;DHT22;19121;52.428;10.816;2022-11-20T01:28:11;17.30;42.30
32753;DHT22;19121;52.428;10.816;2022-11-20T01:30:38;17.30;42.20
32753;DHT22;19121;52.428;10.816;2022-11-20T01:33:03;17.30;42.20
32753;DHT22;19121;52.428;10.816;2022-11-20T01:35:28;17.30;42.20
32753;DHT22;19121;52.428;10.816;2022-11-20T01:37:54;17.30;42.20
32753;DHT22;19121;52.428;10.816;2022-11-20T01:40:19;17.30;42.20
32753;DHT22;19121;52.428;10.816;2022-11-20T01:42:47;17.30;42.20
32753;DHT22;19121;52.428;10.816;2022-11-20T01:45:50;17.30;42.30
32753;DHT22;19121;52.428;10.816;2022-11-20T01:48:18;17.20;42.20
32753;DHT22;19121;52.428;10.816;2022-11-20T01:50:44;17.30;42.20
32753;DHT22;19121;52.428;10.816;2022-11-20T01:53:10;17.30;42.20
32753;DHT22;19121;52.428;10.816;2022-11-20T01:55:38;17.20;42.20
32753;DHT22;19121;52.428;10.816;2022-11-20T01:58:06;17.20;42.20
32753;DHT22;19121;52.428;10.816;2022-11-20T02:00:31;17.20;42.20
32753;DHT22;19121;52.428;10.816;2022-11-20T02:02:57;17.20;42.20
32753;DHT22;19121;52.428;10.816;2022-11-20T02:07:55;17.20;42.20
32753;DHT22;19121;52.428;10.816;2022-11-20T02:10:22;17.20;42.20
32753;DHT22;19121;52.428;10.816;2022-11-20T02:12:47;17.20;42.20
32753;DHT22;19121;52.428;10.816;2022-11-20T02:15:32;17.20;42.20
32753;DHT22;19121;52.428;10.816;2022-11-20T02:17:58;17.20;42.20
32753;DHT22;19121;52.428;10.816;2022-11-20T02:20:23;17.20;42.30
32753;DHT22;19121;52.428;10.816;2022-11-20T02:22:51;17.20;42.20
32753;DHT22;19121;52.428;10.816;2022-11-20T02:25:18;17.20;42.20
32753;DHT22;19121;52.428;10.816;2022-11-20T02:27:44;17.20;42.20
32753;DHT22;19121;52.428;10.816;2022-11-20T02:30:10;17.20;42.20
32753;DHT22;19121;52.428;10.816;2022-11-20T02:32:36;17.20;42.20
32753;DHT22;19121;52.428;10.816;2022-11-20T02:35:06;17.20;42.20
32753;DHT22;19121;52.428;10.816;2022-11-20T02:37:32;17.20;42.20
32753;DHT22;19121;52.428;10.816;2022-11-20T02:39:59;17.20;42.20
32753;DHT22;19121;52.428;10.816;2022-11-20T02:42:24;17.20;42.20
32753;DHT22;19121;52.428;10.816;2022-11-20T02:44:49;17.20;42.30
32753;DHT22;19121;52.428;10.816;2022-11-20T02:47:15;17.20;42.20
32753;DHT22;19121;52.428;10.816;2022-11-20T02:49:40;17.20;42.20
32753;DHT22;19121;52.428;10.816;2022-11-20T02:52:06;17.20;42.20
32753;DHT22;19121;52.428;10.816;2022-11-20T02:54:31;17.20;42.30
32753;DHT22;19121;52.428;10.816;2022-11-20T02:56:57;17.20;42.20
32753;DHT22;19121;52.428;10.816;2022-11-20T02:59:22;17.20;42.20
32753;DHT22;19121;52.428;10.816;2022-11-20T03:01:47;17.20;42.30
32753;DHT22;19121;52.428;10.816;2022-11-20T03:04:13;17.20;42.30
32753;DHT22;19121;52.428;10.816;2022-11-20T03:06:38;17.20;42.30
32753;DHT22;19121;52.428;10.816;2022-11-20T03:09:04;17.20;42.20
32753;DHT22;19121;52.428;10.816;2022-11-20T03:11:29;17.20;42.20
32753;DHT22;19121;52.428;10.816;2022-11-20T03:13:54;17.20;42.30
32753;DHT22;19121;52.428;10.816;2022-11-20T03:16:21;17.20;42.30
32753;DHT22;19121;52.428;10.816;2022-11-20T03:18:47;17.20;42.20
32753;DHT22;19121;52.428;10.816;2022-11-20T03:21:13;17.20;42.20
32753;DHT22;19121;52.428;10.816;2022-11-20T03:23:39;17.20;42.20
32753;DHT22;19121;52.428;10.816;2022-11-20T03:26:12;17.20;42.20
32753;DHT22;19121;52.428;10.816;2022-11-20T03:28:38;17.20;42.20
32753;DHT22;19121;52.428;10.816;2022-11-20T03:31:07;17.20;42.30
32753;DHT22;19121;52.428;10.816;2022-11-20T03:33:33;17.20;42.20
32753;DHT22;19121;52.428;10.816;2022-11-20T03:36:05;17.20;42.20
32753;DHT22;19121;52.428;10.816;2022-11-20T03:38:31;17.20;42.20
32753;DHT22;19121;52.428;10.816;2022-11-20T03:41:04;17.20;42.20
32753;DHT22;19121;52.428;10.816;2022-11-20T03:43:30;17.20;42.20
32753;DHT22;19121;52.428;10.816;2022-11-20T03:45:55;17.20;42.20
32753;DHT22;19121;52.428;10.816;2022-11-20T03:48:21;17.20;42.20
32753;DHT22;19121;52.428;10.816;2022-11-20T03:50:46;17.20;42.20
32753;DHT22;19121;52.428;10.816;2022-11-20T03:53:15;17.20;42.20
32753;DHT22;19121;52.428;10.816;2022-11-20T03:55:40;17.20;42.20
32753;DHT22;19121;52.428;10.816;2022-11-20T03:58:05;17.20;42.20
32753;DHT22;19121;52.428;10.816;2022-11-20T04:00:31;17.20;42.20
32753;DHT22;19121;52.428;10.816;2022-11-20T04:02:59;17.20;42.20
32753;DHT22;19121;52.428;10.816;2022-11-20T04:05:25;17.20;42.20
32753;DHT22;19121;52.428;10.816;2022-11-20T04:07:50;17.20;42.20
32753;DHT22;19121;52.428;10.816;2022-11-20T04:10:16;17.20;42.80
32753;DHT22;19121;52.428;10.816;2022-11-20T04:12:41;17.20;42.10
32753;DHT22;19121;52.428;10.816;2022-11-20T04:15:07;17.20;42.10
32753;DHT22;19121;52.428;10.816;2022-11-20T04:17:32;17.20;42.20
32753;DHT22;19121;52.428;10.816;2022-11-20T04:19:57;17.20;42.20
32753;DHT22;19121;52.428;10.816;2022-11-20T04:22:23;17.20;42.20
32753;DHT22;19121;52.428;10.816;2022-11-20T04:24:48;17.20;42.20
32753;DHT22;19121;52.428;10.816;2022-11-20T04:27:14;17.20;42.10
32753;DHT22;19121;52.428;10.816;2022-11-20T04:29:39;17.20;42.20
32753;DHT22;19121;52.428;10.816;2022-11-20T04:32:04;17.20;42.10
32753;DHT22;19121;52.428;10.816;2022-11-20T04:34:30;17.20;42.10
32753;DHT22;19121;52.428;10.816;2022-11-20T04:36:55;17.20;42.10
32753;DHT22;19121;52.428;10.816;2022-11-20T04:39:21;17.20;42.10
32753;DHT22;19121;52.428;10.816;2022-11-20T04:41:46;17.20;42.10
32753;DHT22;19121;52.428;10.816;2022-11-20T04:44:11;17.20;42.10
32753;DHT22;19121;52.428;10.816;2022-11-20T04:46:41;17.20;42.10
32753;DHT22;19121;52.428;10.816;2022-11-20T04:49:07;17.20;42.10
32753;DHT22;19121;52.428;10.816;2022-11-20T04:51:32;17.20;42.10
32753;DHT22;19121;52.428;10.816;2022-11-20T04:53:58;17.20;42.10
32753;DHT22;19121;52.428;10.816;2022-11-20T04:56:23;17.20;42.10
32753;DHT22;19121;52.428;10.816;2022-11-20T04:58:49;17.20;42.10
32753;DHT22;19121;52.428;10.816;2022-11-20T05:01:15;17.20;42.10
32753;DHT22;19121;52.428;10.816;2022-11-20T05:03:41;17.20;42.10
32753;DHT22;19121;52.428;10.816;2022-11-20T05:06:08;17.20;42.10
32753;DHT22;19121;52.428;10.816;2022-11-20T05:08:33;17.20;42.10
32753;DHT22;19121;52.428;10.816;2022-11-20T05:11:03;17.20;42.10
32753;DHT22;19121;52.428;10.816;2022-11-20T05:13:29;17.20;42.10
32753;DHT22;19121;52.428;10.816;2022-11-20T05:15:54;17.20;42.10
32753;DHT22;19121;52.428;10.816;2022-11-20T05:18:19;17.20;42.10
32753;DHT22;19121;52.428;10.816;2022-11-20T05:20:45;17.20;42.00
32753;DHT22;19121;52.428;10.816;2022-11-20T05:23:10;17.20;42.00
32753;DHT22;19121;52.428;10.816;2022-11-20T05:25:36;17.20;42.10
32753;DHT22;19121;52.428;10.816;2022-11-20T05:28:01;17.20;42.10
32753;DHT22;19121;52.428;10.816;2022-11-20T05:30:26;17.20;42.10
32753;DHT22;19121;52.428;10.816;2022-11-20T05:32:52;17.20;42.00
32753;DHT22;19121;52.428;10.816;2022-11-20T05:35:17;17.20;42.00
32753;DHT22;19121;52.428;10.816;2022-11-20T05:37:43;17.20;42.10
32753;DHT22;19121;52.428;10.816;2022-11-20T05:40:08;17.20;42.10
32753;DHT22;19121;52.428;10.816;2022-11-20T05:42:34;17.20;42.00
32753;DHT22;19121;52.428;10.816;2022-11-20T05:45:01;17.20;42.00
32753;DHT22;19121;52.428;10.816;2022-11-20T05:47:27;17.20;42.00
32753;DHT22;19121;52.428;10.816;2022-11-20T05:49:53;17.20;42.00
32753;DHT22;19121;52.428;10.816;2022-11-20T05:52:19;17.20;42.00
32753;DHT22;19121;52.428;10.816;2022-11-20T05:54:44;17.20;42.00
32753;DHT22;19121;52.428;10.816;2022-11-20T05:57:10;17.20;42.00
32753;DHT22;19121;52.428;10.816;2022-11-20T05:59:35;17.20;42.00
32753;DHT22;19121;52.428;10.816;2022-11-20T06:02:00;17.20;42.00
32753;DHT22;19121;52.428;10.816;2022-11-20T06:04:26;17.20;42.00
32753;DHT22;19121;52.428;10.816;2022-11-20T06:06:51;17.20;42.10
32753;DHT22;19121;52.428;10.816;2022-11-20T06:09:17;17.20;42.10
32753;DHT22;19121;52.428;10.816;2022-11-20T06:11:42;17.20;42.10
32753;DHT22;19121;52.428;10.816;2022-11-20T06:14:07;17.20;42.10
32753;DHT22;19121;52.428;10.816;2022-11-20T06:16:33;17.20;42.00
32753;DHT22;19121;52.428;10.816;2022-11-20T06:18:58;17.20;42.10
32753;DHT22;19121;52.428;10.816;2022-11-20T06:21:24;17.20;42.00
32753;DHT22;19121;52.428;10.816;2022-11-20T06:23:50;17.20;42.00
32753;DHT22;19121;52.428;10.816;2022-11-20T06:26:17;17.20;42.00
32753;DHT22;19121;52.428;10.816;2022-11-20T06:28:42;17.30;42.10
32753;DHT22;19121;52.428;10.816;2022-11-20T06:31:09;17.20;42.00
32753;DHT22;19121;52.428;10.816;2022-11-20T06:33:35;17.20;42.00
32753;DHT22;19121;52.428;10.816;2022-11-20T06:36:01;17.20;42.00
32753;DHT22;19121;52.428;10.816;2022-11-20T06:38:27;17.30;42.10
32753;DHT22;19121;52.428;10.816;2022-11-20T06:40:52;17.30;42.10
32753;DHT22;19121;52.428;10.816;2022-11-20T06:43:18;17.20;42.00
32753;DHT22;19121;52.428;10.816;2022-11-20T06:45:43;17.30;42.00
32753;DHT22;19121;52.428;10.816;2022-11-20T06:48:09;17.20;42.00
32753;DHT22;19121;52.428;10.816;2022-11-20T06:50:36;17.30;42.10
32753;DHT22;19121;52.428;10.816;2022-11-20T06:53:01;17.20;42.00
32753;DHT22;19121;52.428;10.816;2022-11-20T06:55:27;17.30;42.10
32753;DHT22;19121;52.428;10.816;2022-11-20T06:57:53;17.20;42.10
32753;DHT22;19121;52.428;10.816;2022-11-20T07:00:18;17.20;42.00
32753;DHT22;19121;52.428;10.816;2022-11-20T07:02:44;17.30;42.10
32753;DHT22;19121;52.428;10.816;2022-11-20T07:05:09;17.30;42.10
32753;DHT22;19121;52.428;10.816;2022-11-20T07:07:34;17.30;42.60
32753;DHT22;19121;52.428;10.816;2022-11-20T07:10:00;17.30;42.00
32753;DHT22;19121;52.428;10.816;2022-11-20T07:12:25;17.30;42.10
32753;DHT22;19121;52.428;10.816;2022-11-20T07:14:51;17.20;42.00
32753;DHT22;19121;52.428;10.816;2022-11-20T07:17:16;17.30;42.00
32753;DHT22;19121;52.428;10.816;2022-11-20T07:19:41;17.30;42.10
32753;DHT22;19121;52.428;10.816;2022-11-20T07:22:08;17.30;42.00
32753;DHT22;19121;52.428;10.816;2022-11-20T07:24:33;17.20;42.00
32753;DHT22;19121;52.428;10.816;2022-11-20T07:26:59;17.20;42.00
32753;DHT22;19121;52.428;10.816;2022-11-20T07:29:24;17.30;42.10
32753;DHT22;19121;52.428;10.816;2022-11-20T07:31:49;17.30;42.00
32753;DHT22;19121;52.428;10.816;2022-11-20T07:34:15;17.30;42.00
32753;DHT22;19121;52.428;10.816;2022-11-20T07:36:40;17.30;42.00
32753;DHT22;19121;52.428;10.816;2022-11-20T07:39:05;17.30;42.10
32753;DHT22;19121;52.428;10.816;2022-11-20T07:41:31;17.30;42.00
32753;DHT22;19121;52.428;10.816;2022-11-20T07:43:57;17.30;42.00
32753;DHT22;19121;52.428;10.816;2022-11-20T07:46:22;17.30;42.00
32753;DHT22;19121;52.428;10.816;2022-11-20T07:48:47;17.30;42.00
32753;DHT22;19121;52.428;10.816;2022-11-20T07:51:13;17.30;42.00
32753;DHT22;19121;52.428;10.816;2022-11-20T07:53:38;17.30;42.00
32753;DHT22;19121;52.428;10.816;2022-11-20T07:56:04;17.30;42.00
32753;DHT22;19121;52.428;10.816;2022-11-20T07:58:29;17.30;42.00
32753;DHT22;19121;52.428;10.816;2022-11-20T08:00:55;17.30;42.00
32753;DHT22;19121;52.428;10.816;2022-11-20T08:03:20;17.30;42.00
32753;DHT22;19121;52.428;10.816;2022-11-20T08:05:46;17.30;42.00
32753;DHT22;19121;52.428;10.816;2022-11-20T08:08:11;17.30;42.00
32753;DHT22;19121;52.428;10.816;2022-11-20T08:10:37;17.30;42.00
32753;DHT22;19121;52.428;10.816;2022-11-20T08:13:02;17.30;42.00
32753;DHT22;19121;52.428;10.816;2022-11-20T08:15:49;17.30;42.10
32753;DHT22;19121;52.428;10.816;2022-11-20T08:18:16;17.30;42.00
32753;DHT22;19121;52.428;10.816;2022-11-20T08:20:42;17.30;42.10
32753;DHT22;19121;52.428;10.816;2022-11-20T08:23:08;17.30;42.00
32753;DHT22;19121;52.428;10.816;2022-11-20T08:25:34;17.30;42.10
32753;DHT22;19121;52.428;10.816;2022-11-20T08:28:00;17.30;42.10
32753;DHT22;19121;52.428;10.816;2022-11-20T08:30:26;17.30;42.00
32753;DHT22;19121;52.428;10.816;2022-11-20T08:32:51;17.30;42.00
32753;DHT22;19121;52.428;10.816;2022-11-20T08:35:17;17.30;42.00
32753;DHT22;19121;52.428;10.816;2022-11-20T08:37:45;17.30;42.10
32753;DHT22;19121;52.428;10.816;2022-11-20T08:40:11;17.30;42.10
32753;DHT22;19121;52.428;10.816;2022-11-20T08:42:36;17.30;42.10
32753;DHT22;19121;52.428;10.816;2022-11-20T08:45:02;17.30;42.00
32753;DHT22;19121;52.428;10.816;2022-11-20T08:47:28;17.40;42.10
32753;DHT22;19121;52.428;10.816;2022-11-20T08:49:53;17.30;42.00
32753;DHT22;19121;52.428;10.816;2022-11-20T08:52:18;17.40;42.10
32753;DHT22;19121;52.428;10.816;2022-11-20T08:54:44;17.40;42.10
32753;DHT22;19121;52.428;10.816;2022-11-20T08:57:09;17.40;42.00
32753;DHT22;19121;52.428;10.816;2022-11-20T08:59:35;17.40;42.00
32753;DHT22;19121;52.428;10.816;2022-11-20T09:02:00;17.40;42.10
32753;DHT22;19121;52.428;10.816;2022-11-20T09:04:25;17.40;42.10
32753;DHT22;19121;52.428;10.816;2022-11-20T09:06:51;17.40;42.00
32753;DHT22;19121;52.428;10.816;2022-11-20T09:09:17;17.40;42.10
32753;DHT22;19121;52.428;10.816;2022-11-20T09:11:43;17.40;42.10
32753;DHT22;19121;52.428;10.816;2022-11-20T09:14:09;17.40;42.10
32753;DHT22;19121;52.428;10.816;2022-11-20T09:16:34;17.40;42.10
32753;DHT22;19121;52.428;10.816;2022-11-20T09:18:59;17.40;42.10
32753;DHT22;19121;52.428;10.816;2022-11-20T09:21:25;17.40;42.00
32753;DHT22;19121;52.428;10.816;2022-11-20T09:23:50;17.50;42.10
32753;DHT22;19121;52.428;10.816;2022-11-20T09:26:16;17.50;42.10
32753;DHT22;19121;52.428;10.816;2022-11-20T09:28:41;17.50;42.00
32753;DHT22;19121;52.428;10.816;2022-11-20T09:31:22;17.40;42.00
32753;DHT22;19121;52.428;10.816;2022-11-20T09:33:48;17.50;42.10
32753;DHT22;19121;52.428;10.816;2022-11-20T09:36:13;17.50;42.10
32753;DHT22;19121;52.428;10.816;2022-11-20T09:38:39;17.40;42.00
32753;DHT22;19121;52.428;10.816;2022-11-20T09:41:05;17.50;42.00
32753;DHT22;19121;52.428;10.816;2022-11-20T09:43:54;17.50;42.00
32753;DHT22;19121;52.428;10.816;2022-11-20T09:46:20;17.50;42.00
32753;DHT22;19121;52.428;10.816;2022-11-20T09:48:54;17.50;42.00
32753;DHT22;19121;52.428;10.816;2022-11-20T09:51:25;17.50;42.10
32753;DHT22;19121;52.428;10.816;2022-11-20T09:54:10;17.50;42.00
32753;DHT22;19121;52.428;10.816;2022-11-20T09:56:39;17.50;42.00
32753;DHT22;19121;52.428;10.816;2022-11-20T09:59:06;17.60;42.00
32753;DHT22;19121;52.428;10.816;2022-11-20T10:01:33;17.60;42.00
32753;DHT22;19121;52.428;10.816;2022-11-20T10:06:30;17.60;42.00
32753;DHT22;19121;52.428;10.816;2022-11-20T10:09:03;17.60;42.20
32753;DHT22;19121;52.428;10.816;2022-11-20T10:14:16;17.60;42.00
32753;DHT22;19121;52.428;10.816;2022-11-20T10:16:47;17.60;42.00
32753;DHT22;19121;52.428;10.816;2022-11-20T10:21:41;17.60;42.00
32753;DHT22;19121;52.428;10.816;2022-11-20T10:24:19;17.70;42.00
32753;DHT22;19121;52.428;10.816;2022-11-20T10:26:53;17.70;42.00
32753;DHT22;19121;52.428;10.816;2022-11-20T10:29:22;17.70;42.00
32753;DHT22;19121;52.428;10.816;2022-11-20T10:31:56;17.70;41.90
32753;DHT22;19121;52.428;10.816;2022-11-20T10:34:29;17.70;42.00
32753;DHT22;19121;52.428;10.816;2022-11-20T10:37:19;17.70;42.00
32753;DHT22;19121;52.428;10.816;2022-11-20T10:42:15;17.70;42.00
32753;DHT22;19121;52.428;10.816;2022-11-20T10:44:43;17.70;41.90
32753;DHT22;19121;52.428;10.816;2022-11-20T10:47:28;17.80;41.90
32753;DHT22;19121;52.428;10.816;2022-11-20T10:49:55;17.70;41.90
32753;DHT22;19121;52.428;10.816;2022-11-20T10:52:44;17.80;41.90
32753;DHT22;19121;52.428;10.816;2022-11-20T10:55:25;17.80;41.90
32753;DHT22;19121;52.428;10.816;2022-11-20T11:00:24;17.80;41.90
32753;DHT22;19121;52.428;10.816;2022-11-20T11:02:53;17.80;41.90
32753;DHT22;19121;52.428;10.816;2022-11-20T11:05:27;17.80;41.90
32753;DHT22;19121;52.428;10.816;2022-11-20T11:07:57;17.80;41.90
32753;DHT22;19121;52.428;10.816;2022-11-20T11:10:36;17.80;41.90
32753;DHT22;19121;52.428;10.816;2022-11-20T11:13:06;17.80;41.90
32753;DHT22;19121;52.428;10.816;2022-11-20T11:15:39;17.80;41.90
32753;DHT22;19121;52.428;10.816;2022-11-20T11:18:07;17.80;41.80
32753;DHT22;19121;52.428;10.816;2022-11-20T11:20:33;17.90;41.90
32753;DHT22;19121;52.428;10.816;2022-11-20T11:22:59;17.90;41.90
32753;DHT22;19121;52.428;10.816;2022-11-20T11:25:26;17.80;41.80
32753;DHT22;19121;52.428;10.816;2022-11-20T11:27:52;17.90;41.90
32753;DHT22;19121;52.428;10.816;2022-11-20T11:30:18;17.90;41.80
32753;DHT22;19121;52.428;10.816;2022-11-20T11:32:44;17.90;41.80
32753;DHT22;19121;52.428;10.816;2022-11-20T11:35:23;17.80;41.80
32753;DHT22;19121;52.428;10.816;2022-11-20T11:37:49;17.90;41.80
32753;DHT22;19121;52.428;10.816;2022-11-20T11:40:17;17.90;41.80
32753;DHT22;19121;52.428;10.816;2022-11-20T11:42:43;17.90;41.80
32753;DHT22;19121;52.428;10.816;2022-11-20T11:45:14;17.90;41.80
32753;DHT22;19121;52.428;10.816;2022-11-20T11:52:36;17.90;41.80
32753;DHT22;19121;52.428;10.816;2022-11-20T11:55:03;17.90;41.80
32753;DHT22;19121;52.428;10.816;2022-11-20T11:57:36;17.90;41.80
32753;DHT22;19121;52.428;10.816;2022-11-20T12:00:06;17.90;41.80
32753;DHT22;19121;52.428;10.816;2022-11-20T12:04:57;17.90;41.80
32753;DHT22;19121;52.428;10.816;2022-11-20T12:07:35;18.00;41.80
32753;DHT22;19121;52.428;10.816;2022-11-20T12:10:03;17.90;41.80
32753;DHT22;19121;52.428;10.816;2022-11-20T12:12:40;18.00;41.80
32753;DHT22;19121;52.428;10.816;2022-11-20T12:15:09;18.00;41.80
32753;DHT22;19121;52.428;10.816;2022-11-20T12:17:36;18.00;41.80
32753;DHT22;19121;52.428;10.816;2022-11-20T12:20:01;18.00;41.80
32753;DHT22;19121;52.428;10.816;2022-11-20T12:25:04;17.90;41.80
32753;DHT22;19121;52.428;10.816;2022-11-20T12:27:48;18.00;41.90
32753;DHT22;19121;52.428;10.816;2022-11-20T12:30:16;17.90;41.80
32753;DHT22;19121;52.428;10.816;2022-11-20T12:35:30;18.00;41.80
32753;DHT22;19121;52.428;10.816;2022-11-20T12:38:21;18.00;41.80
32753;DHT22;19121;52.428;10.816;2022-11-20T12:40:55;18.00;41.80
32753;DHT22;19121;52.428;10.816;2022-11-20T12:43:26;18.00;41.80
32753;DHT22;19121;52.428;10.816;2022-11-20T12:46:17;18.00;41.80
32753;DHT22;19121;52.428;10.816;2022-11-20T12:53:56;18.00;41.70
32753;DHT22;19121;52.428;10.816;2022-11-20T12:56:37;18.00;41.70
32753;DHT22;19121;52.428;10.816;2022-11-20T13:01:52;18.00;41.80
32753;DHT22;19121;52.428;10.816;2022-11-20T13:06:57;18.00;41.80
32753;DHT22;19121;52.428;10.816;2022-11-20T13:09:23;18.00;41.80
32753;DHT22;19121;52.428;10.816;2022-11-20T13:12:03;18.00;41.80
32753;DHT22;19121;52.428;10.816;2022-11-20T13:14:33;18.00;41.90
32753;DHT22;19121;52.428;10.816;2022-11-20T13:17:01;18.00;41.90
32753;DHT22;19121;52.428;10.816;2022-11-20T13:19:29;18.00;41.90
32753;DHT22;19121;52.428;10.816;2022-11-20T13:21:55;18.00;41.90
32753;DHT22;19121;52.428;10.816;2022-11-20T13:26:59;17.90;41.90
32753;DHT22;19121;52.428;10.816;2022-11-20T13:29:24;18.00;41.90
32753;DHT22;19121;52.428;10.816;2022-11-20T13:31:50;18.00;41.90
32753;DHT22;19121;52.428;10.816;2022-11-20T13:34:25;18.00;41.90
32753;DHT22;19121;52.428;10.816;2022-11-20T13:36:52;18.00;42.50
32753;DHT22;19121;52.428;10.816;2022-11-20T13:39:24;18.00;42.00
32753;DHT22;19121;52.428;10.816;2022-11-20T13:41:54;18.00;41.90
32753;DHT22;19121;52.428;10.816;2022-11-20T13:44:39;18.00;42.00
32753;DHT22;19121;52.428;10.816;2022-11-20T13:47:17;17.90;41.90
32753;DHT22;19121;52.428;10.816;2022-11-20T13:49:45;18.00;42.00
32753;DHT22;19121;52.428;10.816;2022-11-20T13:55:11;18.00;42.00
32753;DHT22;19121;52.428;10.816;2022-11-20T13:57:49;18.00;42.00
32753;DHT22;19121;52.428;10.816;2022-11-20T14:00:20;18.00;42.00
32753;DHT22;19121;52.428;10.816;2022-11-20T14:02:48;18.00;42.00
32753;DHT22;19121;52.428;10.816;2022-11-20T14:05:20;18.00;42.00
32753;DHT22;19121;52.428;10.816;2022-11-20T14:07:46;18.00;42.00
32753;DHT22;19121;52.428;10.816;2022-11-20T14:10:26;18.00;42.00
32753;DHT22;19121;52.428;10.816;2022-11-20T14:12:52;18.00;42.00
32753;DHT22;19121;52.428;10.816;2022-11-20T14:15:33;18.00;42.00
32753;DHT22;19121;52.428;10.816;2022-11-20T14:17:59;18.00;42.00
32753;DHT22;19121;52.428;10.816;2022-11-20T14:20:29;18.00;41.90
32753;DHT22;19121;52.428;10.816;2022-11-20T14:22:56;18.00;41.90
32753;DHT22;19121;52.428;10.816;2022-11-20T14:25:22;18.00;42.00
32753;DHT22;19121;52.428;10.816;2022-11-20T14:27:52;18.00;42.00
32753;DHT22;19121;52.428;10.816;2022-11-20T14:30:20;18.00;42.00
32753;DHT22;19121;52.428;10.816;2022-11-20T14:32:46;18.00;42.00
32753;DHT22;19121;52.428;10.816;2022-11-20T14:35:20;17.90;41.90
32753;DHT22;19121;52.428;10.816;2022-11-20T14:37:46;18.00;42.00
32753;DHT22;19121;52.428;10.816;2022-11-20T14:40:31;18.00;42.00
32753;DHT22;19121;52.428;10.816;2022-11-20T14:42:58;18.00;42.00
32753;DHT22;19121;52.428;10.816;2022-11-20T14:45:24;18.00;42.00
32753;DHT22;19121;52.428;10.816;2022-11-20T14:47:51;18.00;42.00
32753;DHT22;19121;52.428;10.816;2022-11-20T14:50:34;18.00;42.00
32753;DHT22;19121;52.428;10.816;2022-11-20T14:53:00;18.00;42.00
32753;DHT22;19121;52.428;10.816;2022-11-20T14:55:30;18.00;42.00
32753;DHT22;19121;52.428;10.816;2022-11-20T14:57:57;18.00;42.00
32753;DHT22;19121;52.428;10.816;2022-11-20T15:00:22;18.00;42.00
32753;DHT22;19121;52.428;10.816;2022-11-20T15:02:49;18.00;42.00
32753;DHT22;19121;52.428;10.816;2022-11-20T15:05:15;17.90;41.90
32753;DHT22;19121;52.428;10.816;2022-11-20T15:07:41;18.00;42.00
32753;DHT22;19121;52.428;10.816;2022-11-20T15:10:23;17.90;41.90
32753;DHT22;19121;52.428;10.816;2022-11-20T15:12:50;17.90;41.90
32753;DHT22;19121;52.428;10.816;2022-11-20T15:15:17;17.90;41.90
32753;DHT22;19121;52.428;10.816;2022-11-20T15:17:45;17.90;42.40
32753;DHT22;19121;52.428;10.816;2022-11-20T15:20:12;18.00;42.50
32753;DHT22;19121;52.428;10.816;2022-11-20T15:22:38;18.00;42.50
32753;DHT22;19121;52.428;10.816;2022-11-20T15:25:13;18.00;42.40
32753;DHT22;19121;52.428;10.816;2022-11-20T15:27:40;18.00;42.40
32753;DHT22;19121;52.428;10.816;2022-11-20T15:30:11;18.10;42.50
32753;DHT22;19121;52.428;10.816;2022-11-20T15:32:38;18.10;42.40
32753;DHT22;19121;52.428;10.816;2022-11-20T15:35:03;18.20;42.50
32753;DHT22;19121;52.428;10.816;2022-11-20T15:37:29;18.10;42.50
32753;DHT22;19121;52.428;10.816;2022-11-20T15:39:54;18.20;42.50
32753;DHT22;19121;52.428;10.816;2022-11-20T15:42:20;18.20;43.00
32753;DHT22;19121;52.428;10.816;2022-11-20T15:44:45;18.20;43.30
32753;DHT22;19121;52.428;10.816;2022-11-20T15:47:10;18.20;43.90
32753;DHT22;19121;52.428;10.816;2022-11-20T15:49:36;18.30;43.70
32753;DHT22;19121;52.428;10.816;2022-11-20T15:52:01;18.30;43.80
32753;DHT22;19121;52.428;10.816;2022-11-20T15:54:27;18.30;44.00
32753;DHT22;19121;52.428;10.816;2022-11-20T15:56:52;18.30;44.20
32753;DHT22;19121;52.428;10.816;2022-11-20T15:59:18;18.40;44.20
32753;DHT22;19121;52.428;10.816;2022-11-20T16:01:43;18.30;44.20
32753;DHT22;19121;52.428;10.816;2022-11-20T16:04:12;18.30;44.20